Pagrindinis puslapis
METAR-TAF:

METAR-TAF

Oro uostai :

Svolvær, Norvegija

platuma: 68-15N, ilguma: 014-40E, Aukštis: 0 m

Dabartinis oras

Ataskaita buvo paskelbta 6 valandos ir 55 minutes, ne 20:50 UTC
Vėjas 1 kt iš Pietų
Temperatūra 11°C
Drėgmė 94%
Slėgis 1008 hPa
Matomumas 10 km arba daugiau
Mažai debesys ne aukštis 200 ft
Su prošvaistėmis ne aukštis 600 ft

METAR: ENSH 212050Z 17001KT 9999 FEW002 BKN006 11/10 Q1008 RMK WIND 150FT VRB02KT

Laikas: 05:45 (03:45 UTC)

Prognozė

Ataskaita buvo paskelbta 10 valandos ir 34 minutes, ne 17:11 UTC
Prognozė galioja nuo 21 metu 17 UTC su 21 metu 20 UTC
Vėjas 5 kt iš Rytų
Matomumas 10 km arba daugiau
Mažai debesys ne aukštis 1500 ft
Su prošvaistėmis ne aukštis 2000 ft
Laikinai
nuo 21 metu 17 UTC su 21 metu 20 UTC
Matomumas: 4000 m
Su prošvaistėmis ne aukštis 400 ft
lietus, dulksna

TAF: ENSH 211711Z 2117/2120 08005KT 9999 FEW015 BKN020 TEMPO 2117/2120 4000 RADZ BKN004

Orai ataskaitas ir orų prognozės (METAR, TAF).

turimą stotys yra geltonos ir raudonos taškus žemėlapyje.

Perkelti pele per norėdami pamatyti stoties vardą.

Tada spustelėkite, norėdami matyti oro stebėjimo ir prognozės.

Norėdami pakeisti žemėlapį: spustelėkite ant žalios mygtukų su juodo kryžiaus žemyn,; žalią mygtuką su brūkšneliu, jei norite nutolinti; arba žalių rodyklių gretimoms žemėlapius.


METAR-TAF: